createdAt,value
2022-07-29T00:00:33.916Z,18.39
2022-07-29T00:01:33.914Z,18.37
2022-07-29T00:02:33.934Z,18.33
2022-07-29T00:03:33.989Z,18.32
2022-07-29T00:05:33.924Z,18.30
2022-07-29T00:06:33.924Z,18.29
2022-07-29T00:07:33.929Z,18.25
2022-07-29T00:08:33.928Z,18.36
2022-07-29T00:09:33.934Z,18.29
2022-07-29T00:10:33.925Z,18.33
2022-07-29T00:11:33.933Z,18.30
2022-07-29T00:12:33.935Z,18.32
2022-07-29T00:13:33.939Z,18.35
2022-07-29T00:14:33.937Z,18.32
2022-07-29T00:15:33.937Z,18.32
2022-07-29T00:16:34.015Z,18.36
2022-07-29T00:17:33.940Z,18.35
2022-07-29T00:18:33.943Z,18.33
2022-07-29T00:19:33.950Z,18.30
2022-07-29T00:20:33.946Z,18.30
2022-07-29T00:21:33.947Z,18.20
2022-07-29T00:22:33.949Z,18.30
2022-07-29T00:23:36.809Z,18.25
2022-07-29T00:24:33.959Z,18.21
2022-07-29T00:25:33.959Z,18.21
2022-07-29T00:26:33.954Z,18.20
2022-07-29T00:27:33.954Z,18.26
2022-07-29T00:28:33.965Z,18.21
2022-07-29T00:29:35.016Z,18.27
2022-07-29T00:30:33.966Z,18.23
2022-07-29T00:31:33.998Z,18.32
2022-07-29T00:32:33.961Z,18.23
2022-07-29T00:33:33.962Z,18.35
2022-07-29T00:34:33.964Z,18.33
2022-07-29T00:35:33.967Z,18.30
2022-07-29T00:36:33.972Z,18.29
2022-07-29T00:37:33.969Z,18.32
2022-07-29T00:38:33.979Z,18.23
2022-07-29T00:39:33.977Z,18.25
2022-07-29T00:40:33.976Z,18.26
2022-07-29T00:41:33.977Z,18.18
2022-07-29T00:42:33.981Z,18.21
2022-07-29T00:43:33.985Z,18.23
2022-07-29T00:44:33.983Z,18.21
2022-07-29T00:45:33.983Z,18.23
2022-07-29T00:46:34.063Z,18.27
2022-07-29T00:47:33.990Z,18.20
2022-07-29T00:48:33.991Z,18.17
2022-07-29T00:49:33.990Z,18.26
2022-07-29T00:50:33.990Z,18.15
2022-07-29T00:51:33.994Z,18.12
2022-07-29T00:52:33.997Z,18.17
2022-07-29T00:53:33.995Z,18.11
2022-07-29T00:54:34.000Z,18.17
2022-07-29T00:55:33.998Z,18.14
2022-07-29T00:56:34.003Z,18.20
2022-07-29T00:57:33.997Z,18.17
2022-07-29T00:58:34.054Z,18.18
2022-07-29T00:59:35.033Z,18.20
2022-07-29T01:00:34.065Z,18.18
2022-07-29T01:01:34.020Z,18.25
2022-07-29T01:02:34.086Z,18.14
2022-07-29T01:03:34.013Z,18.12
2022-07-29T01:04:34.018Z,18.15
2022-07-29T01:05:48.131Z,18.12
2022-07-29T01:06:34.017Z,18.12
2022-07-29T01:07:37.049Z,18.15
2022-07-29T01:08:34.032Z,18.14
2022-07-29T01:09:34.281Z,18.12
2022-07-29T01:10:34.023Z,18.11
2022-07-29T01:11:34.022Z,18.12
2022-07-29T01:12:34.023Z,18.00
2022-07-29T01:13:34.029Z,18.11
2022-07-29T01:14:34.033Z,18.11
2022-07-29T01:15:34.030Z,18.11
2022-07-29T01:16:34.139Z,18.07
2022-07-29T01:17:34.036Z,18.07
2022-07-29T01:18:34.184Z,18.12
2022-07-29T01:19:34.030Z,17.99
2022-07-29T01:20:34.039Z,18.05
2022-07-29T01:21:34.037Z,18.08
2022-07-29T01:22:34.037Z,18.08
2022-07-29T01:23:34.047Z,18.03
2022-07-29T01:24:34.039Z,18.10
2022-07-29T01:25:34.040Z,18.11
2022-07-29T01:26:34.047Z,18.00
2022-07-29T01:27:34.048Z,18.02
2022-07-29T01:28:34.049Z,18.00
2022-07-29T01:29:38.584Z,18.08
2022-07-29T01:30:34.048Z,18.08
2022-07-29T01:31:36.503Z,18.10
2022-07-29T01:32:34.189Z,18.03
2022-07-29T01:33:34.052Z,18.11
2022-07-29T01:34:34.056Z,18.07
2022-07-29T01:35:34.056Z,18.11
2022-07-29T01:36:34.056Z,18.02
2022-07-29T01:37:34.056Z,18.11
2022-07-29T01:38:34.061Z,18.11
2022-07-29T01:39:34.062Z,18.21
2022-07-29T01:40:34.062Z,18.05
2022-07-29T01:41:34.066Z,18.20
2022-07-29T01:42:34.065Z,18.11
2022-07-29T01:43:34.070Z,18.11
2022-07-29T01:44:34.071Z,18.11
2022-07-29T01:45:34.081Z,18.11
2022-07-29T01:46:34.137Z,18.17
2022-07-29T01:47:35.806Z,18.11
2022-07-29T01:48:34.080Z,18.11
2022-07-29T01:49:34.082Z,18.11
2022-07-29T01:50:34.074Z,18.17
2022-07-29T01:51:34.078Z,18.05
2022-07-29T01:52:34.078Z,18.03
2022-07-29T01:53:37.794Z,18.17
2022-07-29T01:54:34.080Z,18.07
2022-07-29T01:55:34.084Z,18.11
2022-07-29T01:56:34.089Z,18.08
2022-07-29T01:57:34.089Z,17.96
2022-07-29T01:58:34.088Z,17.97
2022-07-29T01:59:34.090Z,18.08
2022-07-29T02:00:34.097Z,18.07
2022-07-29T02:01:34.180Z,18.07
2022-07-29T02:02:34.092Z,18.11
2022-07-29T02:03:34.097Z,18.12
2022-07-29T02:04:34.125Z,18.03
2022-07-29T02:05:34.097Z,18.08
2022-07-29T02:06:34.097Z,17.97
2022-07-29T02:07:34.096Z,18.00
2022-07-29T02:08:34.101Z,18.00
2022-07-29T02:09:34.101Z,17.97
2022-07-29T02:10:34.100Z,17.99
2022-07-29T02:11:34.105Z,18.08
2022-07-29T02:12:34.106Z,18.02
2022-07-29T02:13:34.105Z,18.02
2022-07-29T02:14:34.102Z,18.14
2022-07-29T02:15:34.110Z,17.99
2022-07-29T02:16:34.162Z,18.07
2022-07-29T02:17:34.110Z,18.10
2022-07-29T02:18:34.110Z,17.97
2022-07-29T02:19:34.120Z,18.08
2022-07-29T02:20:34.113Z,18.03
2022-07-29T02:21:34.119Z,18.07
2022-07-29T02:22:34.117Z,18.07
2022-07-29T02:23:50.623Z,18.02
2022-07-29T02:24:34.122Z,18.07
2022-07-29T02:25:38.110Z,17.97
2022-07-29T02:26:34.123Z,17.95
2022-07-29T02:27:34.125Z,17.99
2022-07-29T02:28:34.128Z,17.96
2022-07-29T02:29:34.132Z,17.95
2022-07-29T02:30:34.130Z,18.00
2022-07-29T02:31:34.202Z,18.14
2022-07-29T02:32:34.129Z,18.10
2022-07-29T02:33:34.131Z,18.05
2022-07-29T02:34:34.133Z,17.92
2022-07-29T02:35:34.847Z,18.11
2022-07-29T02:36:34.135Z,18.03
2022-07-29T02:37:34.137Z,17.97
2022-07-29T02:38:34.140Z,18.07
2022-07-29T02:39:34.137Z,18.02
2022-07-29T02:40:34.142Z,18.08
2022-07-29T02:41:34.145Z,18.15
2022-07-29T02:42:34.143Z,18.07
2022-07-29T02:43:34.144Z,18.10
2022-07-29T02:44:34.841Z,18.11
2022-07-29T02:45:34.141Z,18.02
2022-07-29T02:46:34.205Z,18.20
2022-07-29T02:47:41.321Z,18.12
2022-07-29T02:48:34.149Z,18.18
2022-07-29T02:49:34.149Z,18.08
2022-07-29T02:50:34.157Z,18.11
2022-07-29T02:51:43.553Z,18.14
2022-07-29T02:52:34.158Z,18.07
2022-07-29T02:53:34.163Z,18.12
2022-07-29T02:54:34.158Z,18.07
2022-07-29T02:55:34.161Z,18.14
2022-07-29T02:56:34.168Z,18.11
2022-07-29T02:57:34.160Z,18.17
2022-07-29T02:58:34.214Z,18.30
2022-07-29T02:59:34.167Z,18.26
2022-07-29T03:00:34.169Z,18.23
2022-07-29T03:01:34.199Z,18.29
2022-07-29T03:02:34.167Z,18.30
2022-07-29T03:03:34.176Z,18.29
2022-07-29T03:04:34.295Z,18.39
2022-07-29T03:05:34.170Z,18.41
2022-07-29T03:06:38.709Z,18.39
2022-07-29T03:07:34.221Z,18.41
2022-07-29T03:08:34.174Z,18.44
2022-07-29T03:09:34.186Z,18.44
2022-07-29T03:10:34.171Z,18.52
2022-07-29T03:11:41.405Z,18.57
2022-07-29T03:12:34.181Z,18.55
2022-07-29T03:13:34.180Z,18.48
2022-07-29T03:14:34.181Z,18.54
2022-07-29T03:15:34.188Z,18.51
2022-07-29T03:16:36.881Z,18.58
2022-07-29T03:17:34.182Z,18.54
2022-07-29T03:18:34.197Z,18.60
2022-07-29T03:19:34.188Z,18.58
2022-07-29T03:20:34.191Z,18.60
2022-07-29T03:21:34.197Z,18.66
2022-07-29T03:22:34.194Z,18.54
2022-07-29T03:23:36.787Z,18.65
2022-07-29T03:24:34.198Z,18.65
2022-07-29T03:25:34.194Z,18.60
2022-07-29T03:26:34.195Z,18.65
2022-07-29T03:27:34.202Z,18.70
2022-07-29T03:28:34.196Z,18.70
2022-07-29T03:29:34.686Z,18.76
2022-07-29T03:30:34.200Z,18.70
2022-07-29T03:31:34.247Z,18.84
2022-07-29T03:32:34.203Z,18.82
2022-07-29T03:33:34.206Z,18.85
2022-07-29T03:34:34.205Z,18.84
2022-07-29T03:35:34.203Z,18.91
2022-07-29T03:36:34.209Z,18.88
2022-07-29T03:37:34.212Z,18.88
2022-07-29T03:38:34.208Z,18.90
2022-07-29T03:39:34.209Z,18.91
2022-07-29T03:40:34.213Z,18.94
2022-07-29T03:41:34.212Z,19.00
2022-07-29T03:42:34.594Z,18.99
2022-07-29T03:43:34.215Z,18.92
2022-07-29T03:44:34.220Z,18.98
2022-07-29T03:45:34.220Z,19.07
2022-07-29T03:46:34.305Z,19.02
2022-07-29T03:47:43.650Z,18.99
2022-07-29T03:48:34.224Z,18.95
2022-07-29T03:49:34.236Z,18.95
2022-07-29T03:50:34.229Z,18.90
2022-07-29T03:51:34.449Z,18.95
2022-07-29T03:52:34.233Z,19.04
2022-07-29T03:53:34.242Z,19.07
2022-07-29T03:54:34.227Z,18.98
2022-07-29T03:55:34.239Z,19.13
2022-07-29T03:56:34.233Z,19.08
2022-07-29T03:57:34.233Z,19.13
2022-07-29T03:58:34.289Z,19.07
2022-07-29T03:59:34.239Z,19.10
2022-07-29T04:00:34.243Z,19.14
2022-07-29T04:01:34.308Z,19.08
2022-07-29T04:02:34.237Z,19.16
2022-07-29T04:03:34.305Z,19.14
2022-07-29T04:04:34.242Z,19.16
2022-07-29T04:05:34.243Z,19.11
2022-07-29T04:06:34.246Z,19.10
2022-07-29T04:07:34.251Z,19.10
2022-07-29T04:08:34.252Z,19.19
2022-07-29T04:09:34.256Z,19.23
2022-07-29T04:10:34.252Z,19.21
2022-07-29T04:11:34.255Z,19.21
2022-07-29T04:12:34.253Z,19.16
2022-07-29T04:13:34.256Z,19.25
2022-07-29T04:14:34.258Z,19.19
2022-07-29T04:15:34.357Z,19.28
2022-07-29T04:16:34.365Z,19.22
2022-07-29T04:17:34.260Z,19.28
2022-07-29T04:18:34.262Z,19.32
2022-07-29T04:19:34.265Z,19.29
2022-07-29T04:20:34.271Z,19.29
2022-07-29T04:21:34.269Z,19.33
2022-07-29T04:22:34.263Z,19.39
2022-07-29T04:23:34.270Z,19.41
2022-07-29T04:24:34.268Z,19.41
2022-07-29T04:25:34.270Z,19.41
2022-07-29T04:26:34.270Z,19.47
2022-07-29T04:27:34.272Z,19.55
2022-07-29T04:28:34.270Z,19.46
2022-07-29T04:29:34.278Z,19.55
2022-07-29T04:30:34.277Z,19.55
2022-07-29T04:31:34.364Z,19.55
2022-07-29T04:32:34.281Z,19.56
2022-07-29T04:33:34.282Z,19.51
2022-07-29T04:34:34.281Z,19.59
2022-07-29T04:35:36.738Z,19.65
2022-07-29T04:36:34.284Z,19.68
2022-07-29T04:37:34.284Z,19.73
2022-07-29T04:38:34.284Z,19.74
2022-07-29T04:39:34.288Z,19.73
2022-07-29T04:40:34.296Z,19.77
2022-07-29T04:41:34.489Z,19.76
2022-07-29T04:42:34.295Z,19.91
2022-07-29T04:43:36.887Z,19.86
2022-07-29T04:44:39.478Z,19.92
2022-07-29T04:45:34.295Z,19.88
2022-07-29T04:46:34.360Z,19.94
2022-07-29T04:47:34.297Z,20.02
2022-07-29T04:48:34.297Z,19.96
2022-07-29T04:49:34.318Z,19.95
2022-07-29T04:50:34.300Z,19.95
2022-07-29T04:51:34.304Z,20.02
2022-07-29T04:52:34.306Z,20.08
2022-07-29T04:53:34.314Z,19.99
2022-07-29T04:54:34.305Z,20.08
2022-07-29T04:55:34.311Z,20.06
2022-07-29T04:56:34.307Z,20.02
2022-07-29T04:57:34.312Z,20.13
2022-07-29T04:58:34.363Z,20.17
2022-07-29T04:59:34.319Z,20.06
2022-07-29T05:00:34.318Z,20.02
2022-07-29T05:01:34.403Z,20.23
2022-07-29T05:02:34.433Z,20.16
2022-07-29T05:03:34.319Z,20.18
2022-07-29T05:04:34.325Z,20.23
2022-07-29T05:05:34.330Z,20.28
2022-07-29T05:06:34.325Z,20.31
2022-07-29T05:07:34.326Z,20.28
2022-07-29T05:08:34.329Z,20.29
2022-07-29T05:09:34.333Z,20.33
2022-07-29T05:10:34.330Z,20.33
2022-07-29T05:11:34.333Z,20.23
2022-07-29T05:12:34.333Z,20.33
2022-07-29T05:13:45.028Z,20.35
2022-07-29T05:14:34.337Z,20.32
2022-07-29T05:15:34.359Z,20.31
2022-07-29T05:16:34.344Z,20.38
2022-07-29T05:17:34.343Z,20.36
2022-07-29T05:18:34.348Z,20.42
2022-07-29T05:19:34.349Z,20.42
2022-07-29T05:20:34.350Z,20.55
2022-07-29T05:21:34.349Z,20.59
2022-07-29T05:22:34.349Z,20.67
2022-07-29T05:23:34.349Z,20.76
2022-07-29T05:24:34.356Z,20.72
2022-07-29T05:25:43.521Z,20.85
2022-07-29T05:26:34.354Z,20.87
2022-07-29T05:27:34.360Z,20.97
2022-07-29T05:28:34.358Z,21.04
2022-07-29T05:29:43.312Z,20.99
2022-07-29T05:30:34.399Z,21.04
2022-07-29T05:31:34.363Z,21.10
2022-07-29T05:32:34.365Z,21.07
2022-07-29T05:33:37.029Z,21.19
2022-07-29T05:34:34.370Z,21.17
2022-07-29T05:35:34.373Z,21.16
2022-07-29T05:36:34.376Z,21.21
2022-07-29T05:37:34.374Z,21.32
2022-07-29T05:38:34.370Z,21.38
2022-07-29T05:39:47.142Z,21.38
2022-07-29T05:40:34.377Z,21.32
2022-07-29T05:41:34.383Z,21.37
2022-07-29T05:42:34.383Z,21.38
2022-07-29T05:43:34.387Z,21.46
2022-07-29T05:44:34.387Z,21.38
2022-07-29T05:45:49.936Z,21.35
2022-07-29T05:46:38.994Z,21.35
2022-07-29T05:47:38.945Z,21.35
2022-07-29T05:48:39.006Z,21.34
2022-07-29T05:49:38.951Z,21.37
2022-07-29T05:50:44.097Z,21.29
2022-07-29T05:51:38.955Z,21.42
2022-07-29T05:52:38.956Z,21.35
2022-07-29T05:53:38.960Z,21.44
2022-07-29T05:54:38.955Z,21.43
2022-07-29T05:55:38.962Z,21.43
2022-07-29T05:56:38.960Z,21.32
2022-07-29T05:57:38.967Z,21.35
2022-07-29T05:58:38.966Z,21.32
2022-07-29T05:59:38.967Z,21.29
2022-07-29T06:00:38.970Z,21.46
2022-07-29T06:01:39.034Z,21.46
2022-07-29T06:02:38.972Z,21.42
2022-07-29T06:03:38.970Z,21.54
2022-07-29T06:04:39.020Z,21.61
2022-07-29T06:05:38.978Z,21.56
2022-07-29T06:06:38.977Z,21.64
2022-07-29T06:07:38.984Z,21.58
2022-07-29T06:08:38.985Z,21.59
2022-07-29T06:09:38.983Z,21.71
2022-07-29T06:10:38.980Z,21.72
2022-07-29T06:11:38.984Z,21.80
2022-07-29T06:12:38.989Z,21.84
2022-07-29T06:13:38.998Z,21.96
2022-07-29T06:14:38.997Z,21.96
2022-07-29T06:15:39.050Z,22.00
2022-07-29T06:16:39.127Z,22.02
2022-07-29T06:17:39.001Z,22.10
2022-07-29T06:18:38.997Z,22.17
2022-07-29T06:19:39.001Z,22.15
2022-07-29T06:20:39.006Z,22.25
2022-07-29T06:21:41.950Z,22.37
2022-07-29T06:22:39.006Z,22.30
2022-07-29T06:23:39.010Z,22.31
2022-07-29T06:24:39.008Z,22.39
2022-07-29T06:25:39.014Z,22.40
2022-07-29T06:26:39.971Z,22.45
2022-07-29T06:27:39.017Z,22.45
2022-07-29T06:28:39.017Z,22.54
2022-07-29T06:29:39.022Z,22.54
2022-07-29T06:30:39.167Z,22.75
2022-07-29T06:31:39.024Z,22.79
2022-07-29T06:32:43.055Z,22.90
2022-07-29T06:33:39.032Z,23.04
2022-07-29T06:34:39.033Z,23.19
2022-07-29T06:35:42.460Z,23.25
2022-07-29T06:36:39.606Z,23.27
2022-07-29T06:37:39.045Z,23.36
2022-07-29T06:38:42.006Z,23.46
2022-07-29T06:39:39.046Z,23.57
2022-07-29T06:40:39.045Z,23.54
2022-07-29T06:41:39.057Z,23.73
2022-07-29T06:42:39.050Z,23.76
2022-07-29T06:43:50.509Z,23.85
2022-07-29T06:44:39.052Z,23.97
2022-07-29T06:45:39.118Z,24.02
2022-07-29T06:46:39.122Z,24.06
2022-07-29T06:47:39.062Z,24.10
2022-07-29T06:48:39.114Z,24.21
2022-07-29T06:49:39.064Z,24.27
2022-07-29T06:50:39.066Z,24.25
2022-07-29T06:51:39.070Z,24.31
2022-07-29T06:52:39.073Z,24.24
2022-07-29T06:53:39.075Z,24.27
2022-07-29T06:54:39.082Z,24.32
2022-07-29T06:55:39.081Z,24.27
2022-07-29T06:56:40.451Z,24.21
2022-07-29T06:57:39.092Z,24.24
2022-07-29T06:58:39.135Z,24.30
2022-07-29T06:59:39.093Z,24.28
2022-07-29T07:00:39.090Z,24.31
2022-07-29T07:01:39.344Z,24.35
2022-07-29T07:02:39.151Z,24.35
2022-07-29T07:03:39.099Z,24.47
2022-07-29T07:04:39.101Z,24.45
2022-07-29T07:05:39.109Z,24.50
2022-07-29T07:06:39.127Z,24.55
2022-07-29T07:07:39.138Z,24.55
2022-07-29T07:08:39.110Z,24.53
2022-07-29T07:09:40.472Z,24.52
2022-07-29T07:10:39.114Z,24.45
2022-07-29T07:11:39.120Z,24.46
2022-07-29T07:12:39.120Z,24.53
2022-07-29T07:13:39.125Z,24.69
2022-07-29T07:14:39.128Z,24.67
2022-07-29T07:15:40.271Z,24.65
2022-07-29T07:16:39.168Z,24.65
2022-07-29T07:17:39.138Z,24.85
2022-07-29T07:18:39.142Z,24.67
2022-07-29T07:19:39.143Z,24.84
2022-07-29T07:20:39.142Z,24.95
2022-07-29T07:21:39.156Z,25.00
2022-07-29T07:22:39.171Z,25.09
2022-07-29T07:23:39.149Z,25.14
2022-07-29T07:24:39.158Z,25.24
2022-07-29T07:25:39.163Z,25.43
2022-07-29T07:26:39.162Z,25.50
2022-07-29T07:27:39.162Z,25.65
2022-07-29T07:28:39.167Z,25.69
2022-07-29T07:29:39.172Z,25.83
2022-07-29T07:30:39.161Z,25.91
2022-07-29T07:31:39.273Z,26.01
2022-07-29T07:32:39.181Z,26.09
2022-07-29T07:33:39.181Z,26.20
2022-07-29T07:34:39.201Z,26.29
2022-07-29T07:35:39.181Z,26.33
2022-07-29T07:36:39.191Z,26.47
2022-07-29T07:37:39.195Z,26.48
2022-07-29T07:38:39.193Z,26.52
2022-07-29T07:39:39.203Z,26.52
2022-07-29T07:40:39.198Z,26.63
2022-07-29T07:41:39.203Z,26.67
2022-07-29T07:42:39.217Z,26.80
2022-07-29T07:43:39.214Z,26.88
2022-07-29T07:45:03.875Z,27.00
2022-07-29T07:45:39.259Z,27.02
2022-07-29T07:46:39.225Z,27.14
2022-07-29T07:47:39.230Z,27.43
2022-07-29T07:48:39.273Z,27.79
2022-07-29T07:49:39.240Z,28.25
2022-07-29T07:50:39.238Z,28.78
2022-07-29T07:51:39.242Z,29.24
2022-07-29T07:52:39.248Z,29.68
2022-07-29T07:53:39.253Z,30.13
2022-07-29T07:54:39.253Z,30.72
2022-07-29T07:56:07.939Z,30.97
2022-07-29T07:56:39.263Z,31.29
2022-07-29T07:57:39.269Z,31.78
2022-07-29T07:58:39.266Z,32.11
2022-07-29T07:59:39.271Z,32.50
2022-07-29T08:00:39.287Z,32.67
2022-07-29T08:01:47.801Z,33.19
2022-07-29T08:02:39.340Z,33.71
2022-07-29T08:03:39.291Z,34.32
2022-07-29T08:04:39.306Z,34.87
2022-07-29T08:05:39.424Z,35.09
2022-07-29T08:06:39.305Z,35.68
2022-07-29T08:07:39.319Z,36.09
2022-07-29T08:08:39.325Z,36.16
2022-07-29T08:09:39.328Z,36.44
2022-07-29T08:10:39.336Z,36.75
2022-07-29T08:11:39.345Z,37.02
2022-07-29T08:12:39.349Z,37.25
2022-07-29T08:13:39.622Z,37.63
2022-07-29T08:14:39.362Z,37.81
2022-07-29T08:15:39.374Z,37.85
2022-07-29T08:16:39.481Z,37.85
2022-07-29T08:17:39.389Z,37.86
2022-07-29T08:18:39.398Z,37.70
2022-07-29T08:19:39.412Z,37.79
2022-07-29T08:20:39.415Z,37.81
2022-07-29T08:21:39.442Z,38.03
2022-07-29T08:22:39.437Z,38.20
2022-07-29T08:23:47.845Z,38.40
2022-07-29T08:24:39.459Z,38.74
2022-07-29T08:25:40.125Z,39.11
2022-07-29T08:26:39.476Z,38.91
2022-07-29T08:27:44.085Z,38.91
2022-07-29T08:28:39.502Z,38.49
2022-07-29T08:29:39.518Z,38.41
2022-07-29T08:30:39.522Z,38.42
2022-07-29T08:31:39.598Z,38.47
2022-07-29T08:32:56.082Z,38.25
2022-07-29T08:33:39.562Z,38.53
2022-07-29T08:34:39.573Z,39.03
2022-07-29T08:35:39.585Z,39.54
2022-07-29T08:36:39.603Z,39.52
2022-07-29T08:37:39.616Z,39.94
2022-07-29T08:38:39.624Z,39.85
2022-07-29T08:39:39.643Z,39.86
2022-07-29T08:40:39.656Z,39.75
2022-07-29T08:41:39.672Z,40.03
2022-07-29T08:42:39.677Z,39.86
2022-07-29T08:43:39.700Z,39.67
2022-07-29T08:44:39.713Z,40.08
2022-07-29T08:45:39.909Z,40.26
2022-07-29T08:46:39.740Z,40.58
2022-07-29T08:47:39.760Z,40.76
2022-07-29T08:48:39.822Z,40.82
2022-07-29T08:49:39.793Z,40.41
2022-07-29T08:50:39.799Z,39.97
2022-07-29T08:51:49.232Z,39.54
2022-07-29T08:52:39.835Z,39.50
2022-07-29T08:53:39.851Z,39.26
2022-07-29T08:54:39.867Z,39.03
2022-07-29T08:55:39.883Z,38.76
2022-07-29T08:56:39.898Z,38.40
2022-07-29T08:57:39.915Z,38.13
2022-07-29T08:58:39.934Z,37.55
2022-07-29T08:59:39.950Z,37.31
2022-07-29T09:00:40.059Z,37.49
2022-07-29T09:01:42.886Z,37.02
2022-07-29T09:02:39.999Z,36.53
2022-07-29T09:03:40.134Z,36.22
2022-07-29T09:04:40.028Z,35.78
2022-07-29T09:05:42.860Z,35.74
2022-07-29T09:06:40.060Z,35.60
2022-07-29T09:07:40.078Z,35.47
2022-07-29T09:08:40.090Z,35.18
2022-07-29T09:09:40.110Z,34.91
2022-07-29T09:10:40.120Z,34.43
2022-07-29T09:11:40.140Z,34.00
2022-07-29T09:12:40.162Z,33.51
2022-07-29T09:13:40.171Z,33.09
2022-07-29T09:14:40.183Z,32.93
2022-07-29T09:15:40.201Z,32.88
2022-07-29T09:16:52.757Z,32.85
2022-07-29T09:17:40.256Z,32.75
2022-07-29T09:18:40.246Z,32.69
2022-07-29T09:19:45.314Z,32.89
2022-07-29T09:20:40.273Z,33.22
2022-07-29T09:21:40.296Z,33.57
2022-07-29T09:22:42.279Z,33.75
2022-07-29T09:23:40.314Z,33.86
2022-07-29T09:24:40.327Z,33.82
2022-07-29T09:25:40.345Z,33.95
2022-07-29T09:26:40.365Z,34.05
2022-07-29T09:27:40.368Z,34.56
2022-07-29T09:28:40.388Z,35.02
2022-07-29T09:29:40.400Z,35.59
2022-07-29T09:30:40.414Z,36.22
2022-07-29T09:31:40.499Z,36.80
2022-07-29T09:32:40.442Z,37.05
2022-07-29T09:33:40.463Z,37.63
2022-07-29T09:34:40.470Z,38.23
2022-07-29T09:35:40.489Z,38.65
2022-07-29T09:36:40.500Z,38.88
2022-07-29T09:37:40.517Z,38.78
2022-07-29T09:38:40.539Z,38.95
2022-07-29T09:39:40.547Z,39.38
2022-07-29T09:40:40.562Z,39.52
2022-07-29T09:41:40.582Z,39.50
2022-07-29T09:42:40.593Z,39.35
2022-07-29T09:43:40.612Z,39.57
2022-07-29T09:44:40.627Z,39.54
2022-07-29T09:45:40.642Z,39.64
2022-07-29T09:46:40.701Z,39.63
2022-07-29T09:47:40.674Z,39.50
2022-07-29T09:48:40.772Z,39.60
2022-07-29T09:49:40.712Z,39.77
2022-07-29T09:50:40.730Z,40.08
2022-07-29T09:51:40.745Z,39.97
2022-07-29T09:52:40.763Z,39.66
2022-07-29T09:53:40.784Z,39.30
2022-07-29T09:54:40.794Z,38.91
2022-07-29T09:55:40.816Z,38.46
2022-07-29T09:56:40.838Z,38.32
2022-07-29T09:57:40.852Z,38.04
2022-07-29T09:58:40.875Z,37.70
2022-07-29T09:59:49.936Z,37.78
2022-07-29T10:00:40.973Z,37.69
2022-07-29T10:01:40.921Z,37.24
2022-07-29T10:02:40.943Z,37.12
2022-07-29T10:03:41.038Z,36.95
2022-07-29T10:04:40.974Z,36.91
2022-07-29T10:05:40.992Z,37.12
2022-07-29T10:06:41.013Z,37.06
2022-07-29T10:07:41.026Z,36.85
2022-07-29T10:08:41.038Z,36.78
2022-07-29T10:09:41.069Z,37.00
2022-07-29T10:10:41.079Z,37.17
2022-07-29T10:11:48.147Z,37.47
2022-07-29T10:12:41.117Z,38.19
2022-07-29T10:13:41.134Z,38.72
2022-07-29T10:14:41.147Z,38.91
2022-07-29T10:15:41.166Z,38.99
2022-07-29T10:16:41.275Z,38.52
2022-07-29T10:17:41.747Z,38.38
2022-07-29T10:18:41.222Z,38.84
2022-07-29T10:19:41.234Z,38.91
2022-07-29T10:20:41.257Z,39.01
2022-07-29T10:21:41.275Z,39.18
2022-07-29T10:22:52.974Z,39.43
2022-07-29T10:23:46.216Z,39.23
2022-07-29T10:24:41.329Z,39.09
2022-07-29T10:25:45.946Z,38.91
2022-07-29T10:26:41.363Z,38.88
2022-07-29T10:27:41.381Z,38.53
2022-07-29T10:28:41.403Z,38.12
2022-07-29T10:29:41.420Z,37.91
2022-07-29T10:30:41.439Z,37.47
2022-07-29T10:31:41.560Z,37.25
2022-07-29T10:32:41.475Z,37.46
2022-07-29T10:33:41.488Z,37.55
2022-07-29T10:34:41.508Z,37.93
2022-07-29T10:35:41.527Z,38.12
2022-07-29T10:36:41.547Z,38.22
2022-07-29T10:37:45.820Z,38.47
2022-07-29T10:38:45.766Z,39.13
2022-07-29T10:39:45.237Z,39.44
2022-07-29T10:40:41.623Z,39.40
2022-07-29T10:41:43.772Z,39.07
2022-07-29T10:42:41.656Z,38.71
2022-07-29T10:43:42.259Z,38.37
2022-07-29T10:44:41.696Z,38.83
2022-07-29T10:45:41.719Z,39.09
2022-07-29T10:46:41.825Z,38.86
2022-07-29T10:47:41.749Z,39.28
2022-07-29T10:48:41.765Z,39.97
2022-07-29T10:49:41.788Z,39.86
2022-07-29T10:50:41.813Z,39.52
2022-07-29T10:51:41.825Z,39.35
2022-07-29T10:52:41.853Z,39.45
2022-07-29T10:53:41.871Z,39.54
2022-07-29T10:54:42.305Z,39.78
2022-07-29T10:55:43.393Z,39.50
2022-07-29T10:56:41.933Z,39.45
2022-07-29T10:57:53.025Z,38.91
2022-07-29T10:58:41.969Z,38.37
2022-07-29T10:59:41.983Z,37.78
2022-07-29T11:00:42.012Z,37.24
2022-07-29T11:01:50.325Z,36.81
2022-07-29T11:02:43.612Z,37.25
2022-07-29T11:03:50.865Z,37.74
2022-07-29T11:04:42.089Z,38.61
2022-07-29T11:05:42.100Z,39.30
2022-07-29T11:06:42.847Z,39.97
2022-07-29T11:07:46.110Z,40.46
2022-07-29T11:08:42.165Z,40.91
2022-07-29T11:09:42.187Z,41.66
2022-07-29T11:10:42.199Z,42.11
2022-07-29T11:11:44.214Z,42.61
2022-07-29T11:12:42.239Z,43.30
2022-07-29T11:13:42.273Z,43.59
2022-07-29T11:14:42.283Z,43.65
2022-07-29T11:15:42.305Z,43.52
2022-07-29T11:16:42.328Z,43.54
2022-07-29T11:17:51.922Z,43.35
2022-07-29T11:18:42.374Z,43.17
2022-07-29T11:19:43.995Z,42.93
2022-07-29T11:20:42.428Z,42.89
2022-07-29T11:21:53.404Z,42.73
2022-07-29T11:22:45.975Z,42.46
2022-07-29T11:23:42.806Z,42.47
2022-07-29T11:24:50.168Z,42.08
2022-07-29T11:25:50.629Z,41.80
2022-07-29T11:26:42.547Z,41.91
2022-07-29T11:27:42.569Z,41.91
2022-07-29T11:28:42.595Z,42.16
2022-07-29T11:29:43.055Z,42.58
2022-07-29T11:30:42.641Z,42.49
2022-07-29T11:31:42.680Z,41.83
2022-07-29T11:32:44.838Z,41.62
2022-07-29T11:33:56.323Z,41.52
2022-07-29T11:34:42.731Z,41.33
2022-07-29T11:35:42.754Z,41.32
2022-07-29T11:36:42.775Z,41.57
2022-07-29T11:37:45.955Z,41.36
2022-07-29T11:38:42.821Z,41.10
2022-07-29T11:39:42.843Z,40.48
2022-07-29T11:40:42.872Z,40.42
2022-07-29T11:41:42.887Z,40.64
2022-07-29T11:42:44.526Z,40.98
2022-07-29T11:43:42.937Z,41.21
2022-07-29T11:44:42.956Z,41.21
2022-07-29T11:45:45.426Z,41.02
2022-07-29T11:46:43.001Z,40.84
2022-07-29T11:47:43.062Z,40.43
2022-07-29T11:48:43.098Z,40.18
2022-07-29T11:49:43.071Z,40.13
2022-07-29T11:50:44.615Z,40.70
2022-07-29T11:51:56.573Z,41.36
2022-07-29T11:52:49.790Z,41.98
2022-07-29T11:53:43.175Z,42.66
2022-07-29T11:54:57.691Z,43.30
2022-07-29T11:55:51.260Z,43.79
2022-07-29T11:56:43.236Z,43.11
2022-07-29T11:57:43.255Z,42.49
2022-07-29T11:58:43.277Z,41.64
2022-07-29T11:59:43.298Z,41.30
2022-07-29T12:00:43.329Z,40.58
2022-07-29T12:01:43.344Z,39.84
2022-07-29T12:02:43.989Z,39.45
2022-07-29T12:03:43.678Z,39.11
2022-07-29T12:04:43.424Z,38.79
2022-07-29T12:06:43.463Z,38.54
2022-07-29T12:07:47.161Z,38.54
2022-07-29T12:08:43.965Z,38.41
2022-07-29T12:09:43.529Z,38.38
2022-07-29T12:10:43.573Z,38.26
2022-07-29T12:11:55.328Z,38.09
2022-07-29T12:12:43.601Z,38.12
2022-07-29T12:13:43.624Z,38.31
2022-07-29T12:14:43.647Z,38.37
2022-07-29T12:15:47.268Z,38.25
2022-07-29T12:16:43.757Z,38.15
2022-07-29T12:17:43.719Z,37.89
2022-07-29T12:18:43.739Z,37.67
2022-07-29T12:19:43.758Z,38.13
2022-07-29T12:20:43.782Z,38.60
2022-07-29T12:21:45.717Z,38.15
2022-07-29T12:22:43.824Z,37.94
2022-07-29T12:23:43.850Z,37.46
2022-07-29T12:24:43.871Z,37.29
2022-07-29T12:25:43.892Z,37.06
2022-07-29T12:26:43.913Z,36.85
2022-07-29T12:27:43.935Z,36.59
2022-07-29T12:28:43.957Z,36.37
2022-07-29T12:29:47.945Z,36.03
2022-07-29T12:30:44.993Z,35.97
2022-07-29T12:31:45.269Z,36.64
2022-07-29T12:32:44.038Z,37.40
2022-07-29T12:33:44.060Z,37.43
2022-07-29T12:34:44.079Z,37.21
2022-07-29T12:35:45.783Z,37.03
2022-07-29T12:36:44.120Z,36.80
2022-07-29T12:37:44.145Z,36.62
2022-07-29T12:38:44.163Z,36.47
2022-07-29T12:39:44.184Z,36.22
2022-07-29T12:40:44.204Z,36.47
2022-07-29T12:41:44.217Z,36.81
2022-07-29T12:42:44.246Z,37.09
2022-07-29T12:43:44.253Z,37.69
2022-07-29T12:44:44.273Z,38.07
2022-07-29T12:45:44.295Z,38.42
2022-07-29T12:46:44.386Z,38.71
2022-07-29T12:47:44.326Z,38.50
2022-07-29T12:48:44.635Z,38.15
2022-07-29T12:49:44.367Z,37.51
2022-07-29T12:50:44.385Z,37.15
2022-07-29T12:51:44.398Z,36.73
2022-07-29T12:52:44.417Z,37.36
2022-07-29T12:53:44.435Z,38.15
2022-07-29T12:54:44.456Z,38.53